KHAO

Butler Co Regional-Hogan Field Airport

Hamilton, Ohio, USA
METAR KHAO 141253Z AUTO 00000KT 9SM CLR 21/19 A3005 RMK AO2 SLP173 T02060189
Observed Flight Rules
Aug-14 @ 12:53 UTC (51 minutes ago) Visual Flight Rules
Visibility Clouds
9 miles
  • Clear skies
Temperatures Readings
Current 21°C / 70°F
Dewpoint 19°C / 66°F
Humidity 88%
Altimeter 30.05" Hg
Pressure 1017.3 hPa
Elevation 188
METAR KHAO 141253Z AUTO 00000KT 9SM CLR 21/19 A3005 RMK AO2 SLP173 T02060189
Observed Flight Rules
Aug-14 @ 12:53 UTC
(51 minutes ago)
VFR
Clouds
  • Clear skies
Temperature Dewpoint
21°C / 70°F 19°C / 66°F
Humidity Altimeter Pressure
88% 30.05" Hg 1017.3 hPa